Flight Track Log - Related Links

Times and Time Zones

All times are in EDT time to prevent confusion due to time zone crossing. See the AAL2360 flight status page for this flight to view local times or setup timezone preferences in your user account.

Time Position Orientation Groundspeed Altitude Reporting Facility
EDT Latitude Longitude Course Direction KTS MPH feet Rate Location/Type
Sat 03:41:33 PM 32.9167 -97.0333 357° North 169 194 1,100  Level Dallas / Fort Worth TRACON
Sat 03:42:09 PM 32.9333 -97.0167 40° Northeast 184 212 2,200 1,688 Climbing Dallas / Fort Worth TRACON
Sat 03:43:09 PM 33.0000 -97.0000 12° North 269 310 3,800 2,311 Climbing Dallas / Fort Worth TRACON
Sat 03:44:00 PM 32.8813 -96.8000 North  Level FlightAware Approximate
Sat 03:44:50 PM 33.1311 -96.9544 16° North 298 343 8,400  Level Fort Worth Center
Sat 03:45:00 PM 33.0100 -96.8000 North  Level FlightAware Approximate
Sat 03:45:50 PM 33.2144 -96.9219 18° North 310 357 10,800  Level Fort Worth Center
Sat 03:46:00 PM 33.1386 -96.8051 357° North  Level FlightAware Approximate
Sat 03:46:50 PM 33.3039 -96.8767 23° Northeast 325 374 13,400  Level Fort Worth Center
Sat 03:47:50 PM 33.4042 -96.8436 15° North 351 404 14,700 1,900 Climbing Fort Worth Center
Sat 03:48:50 PM 33.5083 -96.8056 17° North 386 444 17,200 2,250 Climbing Fort Worth Center
Sat 03:49:50 PM 33.6167 -96.7650 17° North 394 453 19,200 1,950 Climbing Fort Worth Center
Sat 03:50:50 PM 33.7292 -96.7242 17° North 399 459 21,100 1,700 Climbing Fort Worth Center
Sat 03:51:50 PM 33.8414 -96.6808 18° North 415 478 22,600 1,500 Climbing Fort Worth Center
Sat 03:52:50 PM 33.9603 -96.6397 16° North 425 489 24,100 1,350 Climbing Fort Worth Center
Sat 03:53:50 PM 34.0808 -96.5933 18° North 438 504 25,300 1,150 Climbing Fort Worth Center
Sat 03:54:50 PM 34.1872 -96.5547 17° North 438 504 26,400 1,400 Climbing Fort Worth Center
Sat 03:55:50 PM 34.3142 -96.5083 17° North 450 518 28,100 1,550 Climbing Fort Worth Center
Sat 03:56:50 PM 34.4369 -96.4642 17° North 456 525 29,500 1,300 Climbing Fort Worth Center
Sat 03:57:50 PM 34.5594 -96.4150 18° North 456 525 30,700 750 Climbing Fort Worth Center
Sat 03:58:50 PM 34.6864 -96.3706 16° North 456 525 31,000 150 Climbing Fort Worth Center
Sat 03:59:50 PM 34.8092 -96.3236 17° North 456 525 31,000  Level Fort Worth Center
Sat 04:00:50 PM 34.9319 -96.2764 17° North 456 525 31,000  Level Fort Worth Center
Sat 04:01:50 PM 35.0567 -96.2292 17° North 456 525 31,000  Level Fort Worth Center
Sat 04:02:50 PM 35.1833 -96.1792 18° North 456 525 31,000  Level Fort Worth Center
Sat 04:03:50 PM 35.3058 -96.1314 18° North 456 525 31,000  Level Fort Worth Center
Sat 04:04:22 PM 35.3756 -96.1033 18° North 467 537 31,000  Level Kansas City Center
Sat 04:05:24 PM 35.4975 -96.0583 17° North 469 540 31,000  Level Kansas City Center
Sat 04:06:25 PM 35.6228 -96.0103 17° North 470 541 31,000  Level Kansas City Center
Sat 04:07:27 PM 35.7489 -95.9631 17° North 471 542 31,000  Level Kansas City Center
Sat 04:08:28 PM 35.8928 -95.8750 26° Northeast 478 550 31,000  Level Kansas City Center
Sat 04:09:29 PM 36.0067 -95.7900 31° Northeast 478 550 31,000  Level Kansas City Center
Sat 04:10:31 PM 36.1181 -95.7072 31° Northeast 474 545 31,000 -634 Level Kansas City Center
Sat 04:11:32 PM 36.2306 -95.6269 30° Northeast 470 541 29,700 -976 Descending Kansas City Center
Sat 04:12:34 PM 36.3361 -95.5492 31° Northeast 453 521 29,000 -341 Descending Kansas City Center
Sat 04:13:35 PM 36.4428 -95.4697 31° Northeast 449 517 29,000  Level Kansas City Center
Sat 04:14:36 PM 36.5522 -95.3903 30° Northeast 452 520 29,000  Level Kansas City Center
Sat 04:15:38 PM 36.6706 -95.3017 31° Northeast 447 514 29,000  Level Kansas City Center
Sat 04:16:39 PM 36.7786 -95.2206 31° Northeast 449 517 29,000  Level Kansas City Center
Sat 04:17:41 PM 36.8867 -95.1403 31° Northeast 451 519 29,000  Level Kansas City Center
Sat 04:18:42 PM 36.9956 -95.0600 30° Northeast 453 521 29,000  Level Kansas City Center
Sat 04:19:43 PM 37.1050 -94.9775 31° Northeast 457 526 29,000  Level Kansas City Center
Sat 04:20:45 PM 37.2150 -94.8964 30° Northeast 457 526 29,000  Level Kansas City Center
Sat 04:21:46 PM 37.3250 -94.8125 31° Northeast 460 529 29,000  Level Kansas City Center
Sat 04:22:47 PM 37.4353 -94.7292 31° Northeast 462 532 29,000  Level Kansas City Center
Sat 04:23:49 PM 37.5678 -94.6294 31° Northeast 462 532 29,000  Level Kansas City Center
Sat 04:24:50 PM 37.6767 -94.5461 31° Northeast 465 535 29,000  Level Kansas City Center
Sat 04:25:52 PM 37.7817 -94.4650 31° Northeast 464 534 29,000  Level Kansas City Center
Sat 04:26:53 PM 37.8892 -94.3828 31° Northeast 465 535 29,000  Level Kansas City Center
Sat 04:27:54 PM 38.0136 -94.2858 32° Northeast 471 542 29,000  Level Kansas City Center
Sat 04:28:56 PM 38.1231 -94.2031 31° Northeast 477 549 29,000  Level Kansas City Center
Sat 04:29:57 PM 38.2494 -94.1039 32° Northeast 478 550 29,000  Level Kansas City Center
Sat 04:30:59 PM 38.3683 -94.0106 32° Northeast 480 552 29,000  Level Kansas City Center
Sat 04:32:00 PM 38.4875 -93.9186 31° Northeast 484 557 29,000  Level Kansas City Center
Sat 04:33:01 PM 38.5975 -93.8314 32° Northeast 487 560 29,000  Level Kansas City Center
Sat 04:34:03 PM 38.7158 -93.7378 32° Northeast 483 556 29,000  Level Kansas City Center
Sat 04:35:04 PM 38.8306 -93.6469 32° Northeast 482 555 29,000  Level Kansas City Center
Sat 04:36:06 PM 38.9469 -93.5522 32° Northeast 488 562 29,000  Level Kansas City Center
Sat 04:37:07 PM 39.0644 -93.4300 39° Northeast 495 570 29,000  Level Kansas City Center
Sat 04:38:08 PM 39.1650 -93.3061 44° Northeast 498 573 29,000  Level Kansas City Center
Sat 04:39:10 PM 39.2664 -93.1864 42° Northeast 498 573 29,000  Level Kansas City Center
Sat 04:40:11 PM 39.3614 -93.0575 46° Northeast 504 580 29,000  Level Kansas City Center
Sat 04:41:13 PM 39.4411 -92.9056 56° Northeast 510 587 29,000  Level Kansas City Center
Sat 04:42:14 PM 39.5231 -92.7542 55° Northeast 517 595 29,000  Level Kansas City Center
Sat 04:43:15 PM 39.6217 -92.5725 55° Northeast 519 597 29,000  Level Kansas City Center
Sat 04:44:17 PM 39.7039 -92.4211 55° Northeast 520 598 29,000  Level Kansas City Center
Sat 04:45:18 PM 39.7858 -92.2681 55° Northeast 522 601 29,000  Level Kansas City Center
Sat 04:46:20 PM 39.8678 -92.1156 55° Northeast 523 602 29,000  Level Kansas City Center
Sat 04:47:21 PM 39.9483 -91.9625 55° Northeast 522 601 29,000  Level Kansas City Center
Sat 04:48:22 PM 40.0289 -91.8100 55° Northeast 520 598 29,000  Level Kansas City Center
Sat 04:49:24 PM 40.1256 -91.6242 56° Northeast 521 600 29,000  Level Kansas City Center
Sat 04:50:25 PM 40.2039 -91.4728 56° Northeast 514 592 29,000  Level Kansas City Center
Sat 04:51:26 PM 40.2831 -91.3231 55° Northeast 507 583 29,000  Level Kansas City Center
Sat 04:52:28 PM 40.3650 -91.1656 56° Northeast 507 583 29,000  Level Kansas City Center
Sat 04:52:54 PM 40.3969 -91.1039 56° Northeast 508 585 29,000  Level Chicago Center
Sat 04:53:56 PM 40.4769 -90.9481 56° Northeast 512 589 29,000  Level Chicago Center
Sat 04:54:58 PM 40.5581 -90.7922 56° Northeast 515 593 29,000  Level Chicago Center
Sat 04:55:59 PM 40.6850 -90.7061 27° Northeast 519 597 29,000  Level Chicago Center
Sat 04:57:01 PM 40.8244 -90.7031 North 502 578 29,000  Level Chicago Center
Sat 04:58:02 PM 40.9917 -90.7047 360° North 499 574 29,000  Level Chicago Center
Sat 04:59:07 PM 41.1319 -90.7036 360° North 499 574 29,000  Level Chicago Center
Sat 05:00:08 PM 41.2717 -90.7042 360° North 500 575 29,000  Level Chicago Center
Sat 05:01:10 PM 41.4111 -90.7047 360° North 500 575 29,000  Level Chicago Center
Sat 05:02:11 PM 41.5506 -90.7050 360° North 492 566 29,000  Level Chicago Center
Sat 05:03:13 PM 41.6844 -90.7039 360° North 488 562 29,000  Level Chicago Center
Sat 05:04:14 PM 41.8189 -90.7053 360° North 489 563 29,000  Level Chicago Center
Sat 05:05:16 PM 41.9803 -90.7072 359° North 489 563 29,000 -146 Level Chicago Center
Sat 05:06:17 PM 42.1131 -90.7092 359° North 484 557 28,700 -634 Descending Chicago Center
Sat 05:07:19 PM 42.2336 -90.6392 23° Northeast 491 565 27,700 -927 Descending Chicago Center
Sat 05:08:20 PM 42.2875 -90.4828 65° Northeast 474 545 26,800 -927 Descending Chicago Center
Sat 05:09:22 PM 42.3231 -90.3181 74° East 463 533 25,800 -976 Descending Chicago Center
Sat 05:10:23 PM 42.3544 -90.1561 75° East 452 520 24,800 -1,073 Descending Chicago Center
Sat 05:11:25 PM 42.3914 -89.9667 75° East 441 507 23,600 -1,024 Descending Chicago Center
Sat 05:12:26 PM 42.4206 -89.8231 75° East 434 499 22,700 -1,073 Descending Chicago Center
Sat 05:13:28 PM 42.4558 -89.6392 75° East 433 498 21,400 -1,610 Descending Chicago Center
Sat 05:14:29 PM 42.4636 -89.4794 86° East 430 495 19,400 -2,049 Descending Chicago Center
Sat 05:15:31 PM 42.4497 -89.3219 97° East 424 488 17,200 -1,805 Descending Chicago Center
Sat 05:16:32 PM 42.4367 -89.1708 97° East 407 468 15,700 -1,721 Descending Chicago Center
Sat 05:17:33 PM 42.4233 -89.0264 97° East 390 449 13,700 -1,902 Descending Chicago Center
Sat 05:18:35 PM 42.4106 -88.8828 97° East 385 443 11,800 -1,463 Descending Chicago Center
Sat 05:19:36 PM 42.3972 -88.7494 98° East 364 419 10,700 -1,171 Descending Chicago Center
Sat 05:20:38 PM 42.3856 -88.6147 97° East 316 364 9,400 -829 Descending Chicago Center
Sat 05:21:39 PM 42.3586 -88.5092 109° East 305 351 9,000 -590 Descending Chicago Center
Sat 05:22:40 PM 42.3186 -88.4175 121° Southeast 291 335 8,200 -878 Descending Chicago Center
Sat 05:23:42 PM 42.2789 -88.3242 120° Southeast 291 335 7,200 -585 Descending Chicago Center
Sat 05:24:43 PM 42.2403 -88.2314 119° Southeast 286 329 7,000 -439 Descending Chicago Center
Sat 05:25:45 PM 42.1875 -88.1589 134° Southeast 281 323 6,300 -1,024 Descending Chicago Center
Sat 05:26:46 PM 42.1319 -88.0942 139° Southeast 267 307 4,900 -1,377 Descending Chicago Center

Login

Don't have an account? Register now (free) for customized features, flight alerts, and more!